sensor_id;sensor_type;location;lat;lon;timestamp;P1;durP1;ratioP1;P2;durP2;ratioP2
69783;SDS011;57054;51.978;4.498;2024-03-22T00:01:09;55.72;;;25.02;;
69783;SDS011;57054;51.978;4.498;2024-03-22T00:03:35;53.67;;;24.02;;
69783;SDS011;57054;51.978;4.498;2024-03-22T00:06:00;59.40;;;25.15;;
69783;SDS011;57054;51.978;4.498;2024-03-22T00:08:25;55.65;;;25.02;;
69783;SDS011;57054;51.978;4.498;2024-03-22T00:10:51;53.80;;;24.90;;
69783;SDS011;57054;51.978;4.498;2024-03-22T00:13:16;55.45;;;25.23;;
69783;SDS011;57054;51.978;4.498;2024-03-22T00:15:41;56.83;;;24.52;;
69783;SDS011;57054;51.978;4.498;2024-03-22T00:18:09;52.97;;;24.20;;
69783;SDS011;57054;51.978;4.498;2024-03-22T00:20:34;57.00;;;24.90;;
69783;SDS011;57054;51.978;4.498;2024-03-22T00:23:00;58.22;;;26.23;;
69783;SDS011;57054;51.978;4.498;2024-03-22T00:25:25;55.13;;;25.08;;
69783;SDS011;57054;51.978;4.498;2024-03-22T00:27:50;55.72;;;25.73;;
69783;SDS011;57054;51.978;4.498;2024-03-22T00:30:16;65.75;;;27.17;;
69783;SDS011;57054;51.978;4.498;2024-03-22T00:32:41;54.55;;;24.40;;
69783;SDS011;57054;51.978;4.498;2024-03-22T00:35:09;63.42;;;27.92;;
69783;SDS011;57054;51.978;4.498;2024-03-22T00:37:35;57.03;;;25.50;;
69783;SDS011;57054;51.978;4.498;2024-03-22T00:40:00;53.60;;;24.60;;
69783;SDS011;57054;51.978;4.498;2024-03-22T00:42:25;63.03;;;26.95;;
69783;SDS011;57054;51.978;4.498;2024-03-22T00:44:51;58.13;;;25.77;;
69783;SDS011;57054;51.978;4.498;2024-03-22T00:47:16;58.08;;;25.33;;
69783;SDS011;57054;51.978;4.498;2024-03-22T00:49:42;76.63;;;28.77;;
69783;SDS011;57054;51.978;4.498;2024-03-22T00:52:07;70.47;;;28.38;;
69783;SDS011;57054;51.978;4.498;2024-03-22T00:54:33;64.80;;;27.00;;
69783;SDS011;57054;51.978;4.498;2024-03-22T00:56:58;69.57;;;28.17;;
69783;SDS011;57054;51.978;4.498;2024-03-22T00:59:23;60.83;;;26.60;;
69783;SDS011;57054;51.978;4.498;2024-03-22T01:01:48;59.53;;;25.48;;
69783;SDS011;57054;51.978;4.498;2024-03-22T01:04:14;66.63;;;24.83;;
69783;SDS011;57054;51.978;4.498;2024-03-22T01:06:39;66.57;;;25.45;;
69783;SDS011;57054;51.978;4.498;2024-03-22T01:09:05;68.03;;;25.55;;
69783;SDS011;57054;51.978;4.498;2024-03-22T01:11:31;60.53;;;24.52;;
69783;SDS011;57054;51.978;4.498;2024-03-22T01:13:56;58.78;;;24.42;;
69783;SDS011;57054;51.978;4.498;2024-03-22T01:19:43;60.10;;;23.73;;
69783;SDS011;57054;51.978;4.498;2024-03-22T01:22:09;71.80;;;24.65;;
69783;SDS011;57054;51.978;4.498;2024-03-22T01:24:34;60.53;;;22.83;;
69783;SDS011;57054;51.978;4.498;2024-03-22T01:26:59;58.50;;;23.35;;
69783;SDS011;57054;51.978;4.498;2024-03-22T01:29:25;62.80;;;24.48;;
69783;SDS011;57054;51.978;4.498;2024-03-22T01:31:52;60.33;;;23.65;;
69783;SDS011;57054;51.978;4.498;2024-03-22T01:34:17;60.88;;;24.95;;
69783;SDS011;57054;51.978;4.498;2024-03-22T01:36:43;53.63;;;21.63;;
69783;SDS011;57054;51.978;4.498;2024-03-22T01:39:09;60.45;;;23.10;;
69783;SDS011;57054;51.978;4.498;2024-03-22T01:41:34;58.22;;;22.88;;
69783;SDS011;57054;51.978;4.498;2024-03-22T01:43:59;47.95;;;20.83;;
69783;SDS011;57054;51.978;4.498;2024-03-22T01:46:25;46.92;;;22.35;;
69783;SDS011;57054;51.978;4.498;2024-03-22T01:48:50;46.30;;;21.45;;
69783;SDS011;57054;51.978;4.498;2024-03-22T01:51:16;48.88;;;20.13;;
69783;SDS011;57054;51.978;4.498;2024-03-22T01:53:42;44.60;;;20.02;;
69783;SDS011;57054;51.978;4.498;2024-03-22T01:56:08;48.38;;;21.50;;
69783;SDS011;57054;51.978;4.498;2024-03-22T01:58:34;41.42;;;19.55;;
69783;SDS011;57054;51.978;4.498;2024-03-22T02:01:00;42.78;;;19.42;;
69783;SDS011;57054;51.978;4.498;2024-03-22T02:03:25;37.03;;;18.90;;
69783;SDS011;57054;51.978;4.498;2024-03-22T02:05:51;39.55;;;19.08;;
69783;SDS011;57054;51.978;4.498;2024-03-22T02:08:17;39.75;;;18.70;;
69783;SDS011;57054;51.978;4.498;2024-03-22T02:10:42;33.50;;;18.48;;
69783;SDS011;57054;51.978;4.498;2024-03-22T02:13:08;37.28;;;19.05;;
69783;SDS011;57054;51.978;4.498;2024-03-22T02:15:33;37.03;;;18.52;;
69783;SDS011;57054;51.978;4.498;2024-03-22T02:17:59;36.67;;;18.35;;
69783;SDS011;57054;51.978;4.498;2024-03-22T02:20:24;33.33;;;17.33;;
69783;SDS011;57054;51.978;4.498;2024-03-22T02:22:49;37.08;;;17.80;;
69783;SDS011;57054;51.978;4.498;2024-03-22T02:25:15;36.72;;;17.05;;
69783;SDS011;57054;51.978;4.498;2024-03-22T02:27:40;39.63;;;17.98;;
69783;SDS011;57054;51.978;4.498;2024-03-22T02:30:06;35.65;;;16.63;;
69783;SDS011;57054;51.978;4.498;2024-03-22T02:32:32;39.30;;;17.48;;
69783;SDS011;57054;51.978;4.498;2024-03-22T02:34:57;33.38;;;16.70;;
69783;SDS011;57054;51.978;4.498;2024-03-22T02:37:22;35.35;;;16.73;;
69783;SDS011;57054;51.978;4.498;2024-03-22T02:39:48;32.10;;;16.00;;
69783;SDS011;57054;51.978;4.498;2024-03-22T02:42:13;33.40;;;15.05;;
69783;SDS011;57054;51.978;4.498;2024-03-22T02:44:38;43.55;;;15.48;;
69783;SDS011;57054;51.978;4.498;2024-03-22T02:47:10;33.28;;;15.93;;
69783;SDS011;57054;51.978;4.498;2024-03-22T02:49:38;30.23;;;15.45;;
69783;SDS011;57054;51.978;4.498;2024-03-22T02:52:03;37.10;;;15.50;;
69783;SDS011;57054;51.978;4.498;2024-03-22T02:54:29;34.85;;;16.00;;
69783;SDS011;57054;51.978;4.498;2024-03-22T02:56:54;31.70;;;15.35;;
69783;SDS011;57054;51.978;4.498;2024-03-22T02:59:20;35.08;;;16.13;;
69783;SDS011;57054;51.978;4.498;2024-03-22T03:01:45;30.25;;;15.02;;
69783;SDS011;57054;51.978;4.498;2024-03-22T03:04:10;30.77;;;14.90;;
69783;SDS011;57054;51.978;4.498;2024-03-22T03:06:36;32.53;;;14.55;;
69783;SDS011;57054;51.978;4.498;2024-03-22T03:09:01;27.55;;;13.90;;
69783;SDS011;57054;51.978;4.498;2024-03-22T03:11:26;33.50;;;14.90;;
69783;SDS011;57054;51.978;4.498;2024-03-22T03:13:52;33.38;;;13.80;;
69783;SDS011;57054;51.978;4.498;2024-03-22T03:16:17;33.03;;;14.32;;
69783;SDS011;57054;51.978;4.498;2024-03-22T03:18:42;34.25;;;14.55;;
69783;SDS011;57054;51.978;4.498;2024-03-22T03:21:08;32.53;;;14.23;;
69783;SDS011;57054;51.978;4.498;2024-03-22T03:23:33;32.95;;;12.73;;
69783;SDS011;57054;51.978;4.498;2024-03-22T03:25:58;35.60;;;14.02;;
69783;SDS011;57054;51.978;4.498;2024-03-22T03:28:24;29.75;;;13.60;;
69783;SDS011;57054;51.978;4.498;2024-03-22T03:30:51;33.70;;;14.07;;
69783;SDS011;57054;51.978;4.498;2024-03-22T03:33:16;27.45;;;13.73;;
69783;SDS011;57054;51.978;4.498;2024-03-22T03:35:45;26.52;;;14.52;;
69783;SDS011;57054;51.978;4.498;2024-03-22T03:38:11;30.52;;;14.15;;
69783;SDS011;57054;51.978;4.498;2024-03-22T03:40:36;28.88;;;13.50;;
69783;SDS011;57054;51.978;4.498;2024-03-22T03:43:01;25.73;;;13.35;;
69783;SDS011;57054;51.978;4.498;2024-03-22T03:45:27;27.23;;;12.68;;
69783;SDS011;57054;51.978;4.498;2024-03-22T03:47:52;32.20;;;12.90;;
69783;SDS011;57054;51.978;4.498;2024-03-22T03:50:17;31.08;;;13.30;;
69783;SDS011;57054;51.978;4.498;2024-03-22T03:52:43;32.38;;;12.80;;
69783;SDS011;57054;51.978;4.498;2024-03-22T03:55:08;30.40;;;12.20;;
69783;SDS011;57054;51.978;4.498;2024-03-22T03:57:34;24.88;;;10.75;;
69783;SDS011;57054;51.978;4.498;2024-03-22T03:59:59;22.77;;;10.52;;
69783;SDS011;57054;51.978;4.498;2024-03-22T04:02:24;29.33;;;12.02;;
69783;SDS011;57054;51.978;4.498;2024-03-22T04:04:52;29.25;;;12.52;;
69783;SDS011;57054;51.978;4.498;2024-03-22T04:07:18;36.60;;;12.82;;
69783;SDS011;57054;51.978;4.498;2024-03-22T04:09:43;29.25;;;12.30;;
69783;SDS011;57054;51.978;4.498;2024-03-22T04:12:08;25.50;;;11.98;;
69783;SDS011;57054;51.978;4.498;2024-03-22T04:14:34;30.17;;;12.55;;
69783;SDS011;57054;51.978;4.498;2024-03-22T04:16:59;31.33;;;11.93;;
69783;SDS011;57054;51.978;4.498;2024-03-22T04:19:24;28.13;;;12.60;;
69783;SDS011;57054;51.978;4.498;2024-03-22T04:21:50;29.50;;;14.00;;
69783;SDS011;57054;51.978;4.498;2024-03-22T04:24:15;31.42;;;13.88;;
69783;SDS011;57054;51.978;4.498;2024-03-22T04:26:41;38.75;;;15.80;;
69783;SDS011;57054;51.978;4.498;2024-03-22T04:29:06;30.38;;;14.88;;
69783;SDS011;57054;51.978;4.498;2024-03-22T04:31:31;32.25;;;15.98;;
69783;SDS011;57054;51.978;4.498;2024-03-22T04:33:57;34.78;;;16.50;;
69783;SDS011;57054;51.978;4.498;2024-03-22T04:36:22;35.67;;;16.45;;
69783;SDS011;57054;51.978;4.498;2024-03-22T04:38:48;35.95;;;15.10;;
69783;SDS011;57054;51.978;4.498;2024-03-22T04:41:13;35.47;;;13.77;;
69783;SDS011;57054;51.978;4.498;2024-03-22T04:43:38;39.85;;;13.70;;
69783;SDS011;57054;51.978;4.498;2024-03-22T04:46:04;37.58;;;13.43;;
69783;SDS011;57054;51.978;4.498;2024-03-22T04:48:29;36.55;;;13.63;;
69783;SDS011;57054;51.978;4.498;2024-03-22T04:50:55;35.47;;;14.57;;
69783;SDS011;57054;51.978;4.498;2024-03-22T04:53:20;35.35;;;15.18;;
69783;SDS011;57054;51.978;4.498;2024-03-22T04:55:46;43.70;;;15.23;;
69783;SDS011;57054;51.978;4.498;2024-03-22T04:58:16;40.25;;;16.55;;
69783;SDS011;57054;51.978;4.498;2024-03-22T05:00:43;33.88;;;15.98;;
69783;SDS011;57054;51.978;4.498;2024-03-22T05:03:09;35.40;;;15.90;;
69783;SDS011;57054;51.978;4.498;2024-03-22T05:05:34;33.10;;;16.02;;
69783;SDS011;57054;51.978;4.498;2024-03-22T05:08:00;43.47;;;17.65;;
69783;SDS011;57054;51.978;4.498;2024-03-22T05:10:26;39.15;;;17.52;;
69783;SDS011;57054;51.978;4.498;2024-03-22T05:12:53;39.55;;;17.42;;
69783;SDS011;57054;51.978;4.498;2024-03-22T05:15:19;37.60;;;15.43;;
69783;SDS011;57054;51.978;4.498;2024-03-22T05:17:45;40.92;;;16.67;;
69783;SDS011;57054;51.978;4.498;2024-03-22T05:20:10;42.90;;;15.88;;
69783;SDS011;57054;51.978;4.498;2024-03-22T05:22:39;36.03;;;15.32;;
69783;SDS011;57054;51.978;4.498;2024-03-22T05:27:33;36.63;;;14.75;;
69783;SDS011;57054;51.978;4.498;2024-03-22T05:29:59;32.08;;;13.90;;
69783;SDS011;57054;51.978;4.498;2024-03-22T05:32:25;35.45;;;13.90;;
69783;SDS011;57054;51.978;4.498;2024-03-22T05:34:51;36.95;;;14.50;;
69783;SDS011;57054;51.978;4.498;2024-03-22T05:37:16;27.38;;;14.07;;
69783;SDS011;57054;51.978;4.498;2024-03-22T05:39:42;32.83;;;12.90;;
69783;SDS011;57054;51.978;4.498;2024-03-22T05:42:07;35.20;;;13.93;;
69783;SDS011;57054;51.978;4.498;2024-03-22T05:44:33;38.28;;;13.40;;
69783;SDS011;57054;51.978;4.498;2024-03-22T05:46:58;37.42;;;14.90;;
69783;SDS011;57054;51.978;4.498;2024-03-22T05:49:24;26.75;;;13.05;;
69783;SDS011;57054;51.978;4.498;2024-03-22T05:51:49;36.55;;;14.30;;
69783;SDS011;57054;51.978;4.498;2024-03-22T05:54:14;36.92;;;14.68;;
69783;SDS011;57054;51.978;4.498;2024-03-22T05:56:40;35.47;;;15.32;;
69783;SDS011;57054;51.978;4.498;2024-03-22T05:59:05;44.45;;;16.05;;
69783;SDS011;57054;51.978;4.498;2024-03-22T06:01:31;35.13;;;14.43;;
69783;SDS011;57054;51.978;4.498;2024-03-22T06:03:57;37.85;;;15.07;;
69783;SDS011;57054;51.978;4.498;2024-03-22T06:06:23;36.13;;;14.50;;
69783;SDS011;57054;51.978;4.498;2024-03-22T06:08:50;37.25;;;15.80;;
69783;SDS011;57054;51.978;4.498;2024-03-22T06:11:17;35.55;;;14.85;;
69783;SDS011;57054;51.978;4.498;2024-03-22T06:13:43;37.00;;;14.35;;
69783;SDS011;57054;51.978;4.498;2024-03-22T06:16:09;44.70;;;14.88;;
69783;SDS011;57054;51.978;4.498;2024-03-22T06:18:34;31.90;;;12.88;;
69783;SDS011;57054;51.978;4.498;2024-03-22T06:20:59;36.15;;;13.95;;
69783;SDS011;57054;51.978;4.498;2024-03-22T06:23:25;33.53;;;13.20;;
69783;SDS011;57054;51.978;4.498;2024-03-22T06:25:53;31.33;;;13.00;;
69783;SDS011;57054;51.978;4.498;2024-03-22T06:28:19;29.77;;;14.15;;
69783;SDS011;57054;51.978;4.498;2024-03-22T06:30:45;41.67;;;13.93;;
69783;SDS011;57054;51.978;4.498;2024-03-22T06:33:10;30.98;;;12.15;;
69783;SDS011;57054;51.978;4.498;2024-03-22T06:35:36;38.42;;;13.48;;
69783;SDS011;57054;51.978;4.498;2024-03-22T06:38:01;35.70;;;12.93;;
69783;SDS011;57054;51.978;4.498;2024-03-22T06:40:27;34.72;;;13.57;;
69783;SDS011;57054;51.978;4.498;2024-03-22T06:42:53;36.40;;;12.80;;
69783;SDS011;57054;51.978;4.498;2024-03-22T06:45:19;38.42;;;14.52;;
69783;SDS011;57054;51.978;4.498;2024-03-22T06:47:44;35.72;;;13.38;;
69783;SDS011;57054;51.978;4.498;2024-03-22T06:50:10;36.85;;;12.35;;
69783;SDS011;57054;51.978;4.498;2024-03-22T06:52:36;35.15;;;12.40;;
69783;SDS011;57054;51.978;4.498;2024-03-22T06:55:02;37.28;;;12.52;;
69783;SDS011;57054;51.978;4.498;2024-03-22T06:57:28;29.02;;;11.77;;
69783;SDS011;57054;51.978;4.498;2024-03-22T06:59:53;38.78;;;12.75;;
69783;SDS011;57054;51.978;4.498;2024-03-22T07:02:19;27.35;;;11.02;;
69783;SDS011;57054;51.978;4.498;2024-03-22T07:04:45;31.98;;;12.00;;
69783;SDS011;57054;51.978;4.498;2024-03-22T07:07:10;29.90;;;10.57;;
69783;SDS011;57054;51.978;4.498;2024-03-22T07:09:36;31.60;;;10.88;;
69783;SDS011;57054;51.978;4.498;2024-03-22T07:12:01;29.85;;;9.30;;
69783;SDS011;57054;51.978;4.498;2024-03-22T07:14:27;30.55;;;10.68;;
69783;SDS011;57054;51.978;4.498;2024-03-22T07:16:52;28.35;;;10.68;;
69783;SDS011;57054;51.978;4.498;2024-03-22T07:19:20;31.53;;;9.57;;
69783;SDS011;57054;51.978;4.498;2024-03-22T07:21:46;25.33;;;10.00;;
69783;SDS011;57054;51.978;4.498;2024-03-22T07:24:12;30.35;;;9.77;;
69783;SDS011;57054;51.978;4.498;2024-03-22T07:26:37;30.30;;;9.63;;
69783;SDS011;57054;51.978;4.498;2024-03-22T07:29:03;30.92;;;9.85;;
69783;SDS011;57054;51.978;4.498;2024-03-22T07:31:28;27.25;;;9.35;;
69783;SDS011;57054;51.978;4.498;2024-03-22T07:33:53;26.75;;;9.55;;
69783;SDS011;57054;51.978;4.498;2024-03-22T07:36:19;35.47;;;10.65;;
69783;SDS011;57054;51.978;4.498;2024-03-22T07:38:44;26.70;;;9.63;;
69783;SDS011;57054;51.978;4.498;2024-03-22T07:41:10;30.30;;;9.13;;
69783;SDS011;57054;51.978;4.498;2024-03-22T07:43:35;26.20;;;9.23;;
69783;SDS011;57054;51.978;4.498;2024-03-22T07:46:00;31.00;;;10.00;;
69783;SDS011;57054;51.978;4.498;2024-03-22T07:48:26;32.53;;;9.18;;
69783;SDS011;57054;51.978;4.498;2024-03-22T07:51:01;30.23;;;9.05;;
69783;SDS011;57054;51.978;4.498;2024-03-22T07:53:26;23.45;;;8.13;;
69783;SDS011;57054;51.978;4.498;2024-03-22T07:55:52;34.85;;;9.48;;
69783;SDS011;57054;51.978;4.498;2024-03-22T07:58:17;26.40;;;9.30;;
69783;SDS011;57054;51.978;4.498;2024-03-22T08:00:43;30.85;;;10.05;;
69783;SDS011;57054;51.978;4.498;2024-03-22T08:03:09;30.23;;;9.15;;
69783;SDS011;57054;51.978;4.498;2024-03-22T08:05:39;31.48;;;8.98;;
69783;SDS011;57054;51.978;4.498;2024-03-22T08:08:05;30.38;;;8.82;;
69783;SDS011;57054;51.978;4.498;2024-03-22T08:10:30;30.55;;;9.45;;
69783;SDS011;57054;51.978;4.498;2024-03-22T08:12:56;31.20;;;9.13;;
69783;SDS011;57054;51.978;4.498;2024-03-22T08:15:21;28.55;;;9.05;;
69783;SDS011;57054;51.978;4.498;2024-03-22T08:17:46;24.73;;;8.65;;
69783;SDS011;57054;51.978;4.498;2024-03-22T08:20:12;26.40;;;9.10;;
69783;SDS011;57054;51.978;4.498;2024-03-22T08:22:37;30.52;;;9.93;;
69783;SDS011;57054;51.978;4.498;2024-03-22T08:25:03;31.63;;;9.15;;
69783;SDS011;57054;51.978;4.498;2024-03-22T08:27:29;31.58;;;9.73;;
69783;SDS011;57054;51.978;4.498;2024-03-22T08:29:54;33.72;;;9.50;;
69783;SDS011;57054;51.978;4.498;2024-03-22T08:32:20;32.25;;;10.20;;
69783;SDS011;57054;51.978;4.498;2024-03-22T08:34:45;26.35;;;9.15;;
69783;SDS011;57054;51.978;4.498;2024-03-22T08:37:11;28.45;;;10.27;;
69783;SDS011;57054;51.978;4.498;2024-03-22T08:39:36;24.50;;;9.95;;
69783;SDS011;57054;51.978;4.498;2024-03-22T08:42:02;22.15;;;9.98;;
69783;SDS011;57054;51.978;4.498;2024-03-22T08:44:30;33.97;;;9.37;;
69783;SDS011;57054;51.978;4.498;2024-03-22T08:46:55;29.23;;;9.57;;
69783;SDS011;57054;51.978;4.498;2024-03-22T08:49:20;31.58;;;9.63;;
69783;SDS011;57054;51.978;4.498;2024-03-22T08:51:46;33.13;;;10.13;;
69783;SDS011;57054;51.978;4.498;2024-03-22T08:54:13;29.13;;;9.65;;
69783;SDS011;57054;51.978;4.498;2024-03-22T08:56:38;33.50;;;9.75;;
69783;SDS011;57054;51.978;4.498;2024-03-22T08:59:04;21.33;;;9.13;;
69783;SDS011;57054;51.978;4.498;2024-03-22T09:01:29;29.65;;;10.05;;
69783;SDS011;57054;51.978;4.498;2024-03-22T09:03:54;30.63;;;10.25;;
69783;SDS011;57054;51.978;4.498;2024-03-22T09:06:20;24.70;;;9.95;;
69783;SDS011;57054;51.978;4.498;2024-03-22T09:08:45;27.35;;;10.70;;
69783;SDS011;57054;51.978;4.498;2024-03-22T09:11:11;29.63;;;10.45;;
69783;SDS011;57054;51.978;4.498;2024-03-22T09:13:37;34.97;;;11.55;;
69783;SDS011;57054;51.978;4.498;2024-03-22T09:16:03;35.38;;;11.10;;
69783;SDS011;57054;51.978;4.498;2024-03-22T09:18:28;32.03;;;11.32;;
69783;SDS011;57054;51.978;4.498;2024-03-22T09:20:54;30.00;;;10.40;;
69783;SDS011;57054;51.978;4.498;2024-03-22T09:23:19;28.20;;;10.93;;
69783;SDS011;57054;51.978;4.498;2024-03-22T09:25:45;27.23;;;10.82;;
69783;SDS011;57054;51.978;4.498;2024-03-22T09:28:12;29.75;;;10.82;;
69783;SDS011;57054;51.978;4.498;2024-03-22T09:30:38;30.88;;;10.07;;
69783;SDS011;57054;51.978;4.498;2024-03-22T09:33:04;32.28;;;10.60;;
69783;SDS011;57054;51.978;4.498;2024-03-22T09:35:30;28.13;;;9.73;;
69783;SDS011;57054;51.978;4.498;2024-03-22T09:37:56;28.98;;;9.68;;
69783;SDS011;57054;51.978;4.498;2024-03-22T09:40:21;23.08;;;9.18;;
69783;SDS011;57054;51.978;4.498;2024-03-22T09:42:47;30.27;;;9.75;;
69783;SDS011;57054;51.978;4.498;2024-03-22T09:45:14;30.10;;;9.40;;
69783;SDS011;57054;51.978;4.498;2024-03-22T09:50:09;20.38;;;7.85;;
69783;SDS011;57054;51.978;4.498;2024-03-22T09:52:36;24.20;;;8.40;;
69783;SDS011;57054;51.978;4.498;2024-03-22T09:55:03;28.50;;;8.05;;
69783;SDS011;57054;51.978;4.498;2024-03-22T09:57:29;22.95;;;8.20;;
69783;SDS011;57054;51.978;4.498;2024-03-22T09:59:56;31.45;;;8.75;;
69783;SDS011;57054;51.978;4.498;2024-03-22T10:02:21;18.40;;;8.27;;
69783;SDS011;57054;51.978;4.498;2024-03-22T10:04:50;26.98;;;8.50;;
69783;SDS011;57054;51.978;4.498;2024-03-22T10:07:16;19.88;;;7.82;;
69783;SDS011;57054;51.978;4.498;2024-03-22T10:09:41;28.50;;;9.77;;
69783;SDS011;57054;51.978;4.498;2024-03-22T10:12:08;19.77;;;8.13;;
69783;SDS011;57054;51.978;4.498;2024-03-22T10:14:33;19.58;;;8.57;;
69783;SDS011;57054;51.978;4.498;2024-03-22T10:17:00;18.75;;;8.75;;
69783;SDS011;57054;51.978;4.498;2024-03-22T10:19:25;18.98;;;8.20;;
69783;SDS011;57054;51.978;4.498;2024-03-22T10:22:00;24.85;;;8.48;;
69783;SDS011;57054;51.978;4.498;2024-03-22T10:24:26;26.02;;;8.93;;
69783;SDS011;57054;51.978;4.498;2024-03-22T10:26:51;23.95;;;9.13;;
69783;SDS011;57054;51.978;4.498;2024-03-22T10:29:17;15.77;;;8.43;;
69783;SDS011;57054;51.978;4.498;2024-03-22T10:31:45;24.58;;;9.43;;
69783;SDS011;57054;51.978;4.498;2024-03-22T10:34:11;24.48;;;10.25;;
69783;SDS011;57054;51.978;4.498;2024-03-22T10:36:38;22.23;;;10.05;;
69783;SDS011;57054;51.978;4.498;2024-03-22T10:39:05;16.35;;;9.50;;
69783;SDS011;57054;51.978;4.498;2024-03-22T10:41:31;22.17;;;10.30;;
69783;SDS011;57054;51.978;4.498;2024-03-22T10:43:56;23.00;;;11.32;;
69783;SDS011;57054;51.978;4.498;2024-03-22T10:46:23;19.23;;;10.25;;
69783;SDS011;57054;51.978;4.498;2024-03-22T10:48:55;22.05;;;10.85;;
69783;SDS011;57054;51.978;4.498;2024-03-22T10:51:21;21.60;;;10.68;;
69783;SDS011;57054;51.978;4.498;2024-03-22T10:53:49;25.25;;;11.23;;
69783;SDS011;57054;51.978;4.498;2024-03-22T10:56:19;14.50;;;9.95;;
69783;SDS011;57054;51.978;4.498;2024-03-22T11:01:21;20.20;;;9.55;;
69783;SDS011;57054;51.978;4.498;2024-03-22T11:03:49;15.48;;;9.98;;
69783;SDS011;57054;51.978;4.498;2024-03-22T11:06:17;21.17;;;11.77;;
69783;SDS011;57054;51.978;4.498;2024-03-22T11:08:49;17.38;;;10.75;;
69783;SDS011;57054;51.978;4.498;2024-03-22T11:11:17;20.58;;;11.88;;
69783;SDS011;57054;51.978;4.498;2024-03-22T11:13:43;18.00;;;11.48;;
69783;SDS011;57054;51.978;4.498;2024-03-22T11:16:11;17.95;;;10.98;;
69783;SDS011;57054;51.978;4.498;2024-03-22T11:18:36;19.60;;;11.25;;
69783;SDS011;57054;51.978;4.498;2024-03-22T11:21:02;22.45;;;11.30;;
69783;SDS011;57054;51.978;4.498;2024-03-22T11:23:28;22.88;;;12.32;;
69783;SDS011;57054;51.978;4.498;2024-03-22T11:25:54;23.52;;;11.77;;
69783;SDS011;57054;51.978;4.498;2024-03-22T11:28:19;21.83;;;11.60;;
69783;SDS011;57054;51.978;4.498;2024-03-22T11:30:45;18.33;;;11.88;;
69783;SDS011;57054;51.978;4.498;2024-03-22T11:33:10;16.20;;;11.68;;
69783;SDS011;57054;51.978;4.498;2024-03-22T11:35:35;16.35;;;10.07;;
69783;SDS011;57054;51.978;4.498;2024-03-22T11:38:01;26.20;;;13.10;;
69783;SDS011;57054;51.978;4.498;2024-03-22T11:40:26;16.85;;;11.00;;
69783;SDS011;57054;51.978;4.498;2024-03-22T11:42:53;17.88;;;11.10;;
69783;SDS011;57054;51.978;4.498;2024-03-22T11:45:20;21.73;;;11.18;;
69783;SDS011;57054;51.978;4.498;2024-03-22T11:47:48;17.83;;;11.60;;
69783;SDS011;57054;51.978;4.498;2024-03-22T11:50:13;22.40;;;11.05;;
69783;SDS011;57054;51.978;4.498;2024-03-22T11:52:40;22.27;;;11.38;;
69783;SDS011;57054;51.978;4.498;2024-03-22T11:55:06;17.55;;;11.07;;
69783;SDS011;57054;51.978;4.498;2024-03-22T11:57:32;14.60;;;9.68;;
69783;SDS011;57054;51.978;4.498;2024-03-22T12:00:00;16.38;;;10.82;;
69783;SDS011;57054;51.978;4.498;2024-03-22T12:02:31;17.00;;;10.27;;
69783;SDS011;57054;51.978;4.498;2024-03-22T12:04:56;20.80;;;11.23;;
69783;SDS011;57054;51.978;4.498;2024-03-22T12:07:22;20.83;;;11.50;;
69783;SDS011;57054;51.978;4.498;2024-03-22T12:09:48;22.33;;;10.70;;
69783;SDS011;57054;51.978;4.498;2024-03-22T12:12:14;17.15;;;9.55;;
69783;SDS011;57054;51.978;4.498;2024-03-22T12:14:39;19.15;;;8.30;;
69783;SDS011;57054;51.978;4.498;2024-03-22T12:17:05;13.38;;;7.72;;
69783;SDS011;57054;51.978;4.498;2024-03-22T12:19:31;18.10;;;8.25;;
69783;SDS011;57054;51.978;4.498;2024-03-22T12:21:57;12.27;;;7.05;;
69783;SDS011;57054;51.978;4.498;2024-03-22T12:24:23;13.55;;;8.02;;
69783;SDS011;57054;51.978;4.498;2024-03-22T12:26:48;11.55;;;7.82;;
69783;SDS011;57054;51.978;4.498;2024-03-22T12:29:17;13.43;;;7.43;;
69783;SDS011;57054;51.978;4.498;2024-03-22T12:31:43;9.75;;;7.30;;
69783;SDS011;57054;51.978;4.498;2024-03-22T12:34:09;10.02;;;7.57;;
69783;SDS011;57054;51.978;4.498;2024-03-22T12:36:34;9.20;;;7.45;;
69783;SDS011;57054;51.978;4.498;2024-03-22T12:39:00;8.73;;;7.15;;
69783;SDS011;57054;51.978;4.498;2024-03-22T12:41:25;11.27;;;7.45;;
69783;SDS011;57054;51.978;4.498;2024-03-22T12:43:52;7.68;;;6.95;;
69783;SDS011;57054;51.978;4.498;2024-03-22T12:46:17;8.15;;;6.93;;
69783;SDS011;57054;51.978;4.498;2024-03-22T12:48:42;8.38;;;7.28;;
69783;SDS011;57054;51.978;4.498;2024-03-22T12:51:08;12.02;;;8.45;;
69783;SDS011;57054;51.978;4.498;2024-03-22T12:53:34;12.98;;;9.32;;
69783;SDS011;57054;51.978;4.498;2024-03-22T12:55:59;12.07;;;9.25;;
69783;SDS011;57054;51.978;4.498;2024-03-22T12:58:24;10.55;;;7.97;;
69783;SDS011;57054;51.978;4.498;2024-03-22T13:00:49;20.90;;;11.50;;
69783;SDS011;57054;51.978;4.498;2024-03-22T13:03:15;15.45;;;9.98;;
69783;SDS011;57054;51.978;4.498;2024-03-22T13:05:41;20.67;;;11.63;;
69783;SDS011;57054;51.978;4.498;2024-03-22T13:08:07;17.77;;;10.35;;
69783;SDS011;57054;51.978;4.498;2024-03-22T13:10:32;19.42;;;11.10;;
69783;SDS011;57054;51.978;4.498;2024-03-22T13:12:57;14.43;;;10.13;;
69783;SDS011;57054;51.978;4.498;2024-03-22T13:15:23;21.80;;;11.82;;
69783;SDS011;57054;51.978;4.498;2024-03-22T13:17:49;15.07;;;10.63;;
69783;SDS011;57054;51.978;4.498;2024-03-22T13:20:14;24.02;;;10.63;;
69783;SDS011;57054;51.978;4.498;2024-03-22T13:22:40;20.80;;;10.90;;
69783;SDS011;57054;51.978;4.498;2024-03-22T13:25:06;20.38;;;10.55;;
69783;SDS011;57054;51.978;4.498;2024-03-22T13:27:34;22.50;;;10.52;;
69783;SDS011;57054;51.978;4.498;2024-03-22T13:30:03;23.10;;;10.82;;
69783;SDS011;57054;51.978;4.498;2024-03-22T13:34:53;24.40;;;10.00;;
69783;SDS011;57054;51.978;4.498;2024-03-22T13:37:19;19.55;;;9.30;;
69783;SDS011;57054;51.978;4.498;2024-03-22T13:39:50;21.30;;;10.32;;
69783;SDS011;57054;51.978;4.498;2024-03-22T13:42:16;16.90;;;9.63;;
69783;SDS011;57054;51.978;4.498;2024-03-22T13:44:42;17.67;;;9.40;;
69783;SDS011;57054;51.978;4.498;2024-03-22T13:47:08;16.63;;;9.48;;
69783;SDS011;57054;51.978;4.498;2024-03-22T13:49:33;16.42;;;9.38;;
69783;SDS011;57054;51.978;4.498;2024-03-22T13:51:59;21.35;;;9.43;;
69783;SDS011;57054;51.978;4.498;2024-03-22T13:54:24;18.05;;;9.25;;
69783;SDS011;57054;51.978;4.498;2024-03-22T13:56:50;19.23;;;9.32;;
69783;SDS011;57054;51.978;4.498;2024-03-22T13:59:15;18.58;;;9.88;;
69783;SDS011;57054;51.978;4.498;2024-03-22T14:01:41;23.80;;;10.18;;
69783;SDS011;57054;51.978;4.498;2024-03-22T14:04:09;16.50;;;9.48;;
69783;SDS011;57054;51.978;4.498;2024-03-22T14:06:36;23.52;;;9.63;;
69783;SDS011;57054;51.978;4.498;2024-03-22T14:09:02;20.48;;;9.68;;
69783;SDS011;57054;51.978;4.498;2024-03-22T14:11:28;24.65;;;10.25;;
69783;SDS011;57054;51.978;4.498;2024-03-22T14:13:55;19.10;;;9.30;;
69783;SDS011;57054;51.978;4.498;2024-03-22T14:16:21;15.77;;;8.77;;
69783;SDS011;57054;51.978;4.498;2024-03-22T14:18:47;18.67;;;9.43;;
69783;SDS011;57054;51.978;4.498;2024-03-22T14:21:13;23.40;;;9.02;;
69783;SDS011;57054;51.978;4.498;2024-03-22T14:23:43;27.33;;;9.05;;
69783;SDS011;57054;51.978;4.498;2024-03-22T14:26:09;16.35;;;8.38;;
69783;SDS011;57054;51.978;4.498;2024-03-22T14:28:34;17.20;;;8.80;;
69783;SDS011;57054;51.978;4.498;2024-03-22T14:31:02;20.63;;;8.52;;